Time;durP1;ratioP1;P1;durP2;ratioP2;P2;SDS_P1;SDS_P2;PMS_P1;PMS_P2;Temp;Humidity;BMP_temperature;BMP_pressure;BME280_temperature;BME280_humidity;BME280_pressure;Samples;Min_cycle;Max_cycle;Signal;HPM_P1;HPM_P2
2021/08/11 00:01:00;;;;;;;5.80;4.13;;;;;;;;;;5046512;28;20119;-60
2021/08/11 00:03:26;;;;;;;7.22;4.03;;;;;;;;;;5040304;28;20024;-60
2021/08/11 00:05:51;;;;;;;8.27;4.25;;;;;;;;;;5034728;28;20334;-60
2021/08/11 00:08:17;;;;;;;7.43;4.43;;;;;;;;;;5041816;28;20431;-60
2021/08/11 00:10:42;;;;;;;7.78;4.50;;;;;;;;;;5043982;28;20017;-60
2021/08/11 00:13:08;;;;;;;6.50;4.20;;;;;;;;;;5046229;28;20595;-60
2021/08/11 00:15:33;;;;;;;12.43;4.13;;;;;;;;;;5042432;28;20023;-60
2021/08/11 00:17:58;;;;;;;7.40;4.30;;;;;;;;;;5039173;28;20029;-60
2021/08/11 00:20:24;;;;;;;9.55;4.32;;;;;;;;;;5040337;28;20033;-60
2021/08/11 00:22:51;;;;;;;8.75;3.97;;;;;;;;;;5045767;28;20471;-60
2021/08/11 00:25:17;;;;;;;6.80;4.25;;;;;;;;;;5042163;28;20033;-60
2021/08/11 00:27:42;;;;;;;7.03;4.43;;;;;;;;;;5041523;28;21641;-60
2021/08/11 00:30:08;;;;;;;8.07;4.57;;;;;;;;;;5045310;28;20029;-60
2021/08/11 00:32:34;;;;;;;6.13;4.78;;;;;;;;;;5043538;28;20029;-60
2021/08/11 00:34:59;;;;;;;5.10;4.05;;;;;;;;;;5039193;28;20036;-60
2021/08/11 00:37:24;;;;;;;6.32;3.80;;;;;;;;;;5045349;28;20062;-60
2021/08/11 00:39:50;;;;;;;7.03;4.20;;;;;;;;;;5038353;28;20574;-60
2021/08/11 00:42:16;;;;;;;6.22;4.25;;;;;;;;;;5037670;28;20041;-60
2021/08/11 00:44:41;;;;;;;10.13;4.07;;;;;;;;;;5042613;28;20118;-60
2021/08/11 00:47:07;;;;;;;6.43;4.30;;;;;;;;;;5043083;28;20029;-59
2021/08/11 00:49:32;;;;;;;8.85;4.20;;;;;;;;;;5040087;28;20021;-60
2021/08/11 00:51:58;;;;;;;8.23;4.32;;;;;;;;;;5041455;28;20029;-60
2021/08/11 00:54:25;;;;;;;10.60;4.63;;;;;;;;;;5040708;28;20388;-60
2021/08/11 00:56:53;;;;;;;5.80;4.10;;;;;;;;;;5040556;28;20104;-59
2021/08/11 00:59:21;;;;;;;7.60;3.95;;;;;;;;;;5042115;28;20032;-58
2021/08/11 01:01:51;;;;;;;6.32;4.32;;;;;;;;;;5037022;28;20422;-58
2021/08/11 01:04:18;;;;;;;7.40;4.13;;;;;;;;;;5037758;28;20024;-58
2021/08/11 01:06:44;;;;;;;8.10;4.30;;;;;;;;;;5041418;28;20492;-58
2021/08/11 01:09:14;;;;;;;7.63;4.20;;;;;;;;;;5039860;28;20037;-59
2021/08/11 01:11:44;;;;;;;7.20;4.68;;;;;;;;;;5041597;28;20025;-59
2021/08/11 01:14:10;;;;;;;;;;;;;;;;;;5040409;28;20029;-58
2021/08/11 01:16:35;;;;;;;6.20;3.80;;;;;;;;;;5038055;28;19921;-58
2021/08/11 01:19:01;;;;;;;6.28;4.18;;;;;;;;;;5040260;28;20029;-59
2021/08/11 01:21:29;;;;;;;5.65;3.78;;;;;;;;;;5035738;28;20040;-59
2021/08/11 01:23:57;;;;;;;5.72;4.03;;;;;;;;;;5046737;28;20032;-58
2021/08/11 01:26:32;;;;;;;7.68;4.07;;;;;;;;;;5042962;28;20047;-58
2021/08/11 01:29:14;;;;;;;7.45;3.95;;;;;;;;;;5038958;28;20033;-58
2021/08/11 01:32:03;;;;;;;7.47;4.10;;;;;;;;;;5048546;28;20029;-58
2021/08/11 01:34:35;;;;;;;;;;;;;;;;;;5043061;28;20029;-58
2021/08/11 01:37:08;;;;;;;6.32;4.22;;;;;;;;;;5044083;28;19928;-60
2021/08/11 01:39:36;;;;;;;5.88;3.88;;;;;;;;;;5046635;28;20085;-58
2021/08/11 01:42:08;;;;;;;8.10;4.43;;;;;;;;;;5043535;28;20025;-58
2021/08/11 01:44:56;;;;;;;8.30;4.25;;;;;;;;;;5045168;28;20036;-58
2021/08/11 01:47:32;;;;;;;8.48;5.28;;;;;;;;;;5042187;28;20103;-59
2021/08/11 01:49:58;;;;;;;6.60;4.28;;;;;;;;;;5038119;28;20017;-59
2021/08/11 01:52:25;;;;;;;9.52;4.40;;;;;;;;;;5043068;28;20039;-59
2021/08/11 01:54:51;;;;;;;7.63;4.20;;;;;;;;;;5050522;28;20029;-59
2021/08/11 01:57:18;;;;;;;7.60;4.63;;;;;;;;;;5039052;28;20072;-59
2021/08/11 01:59:45;;;;;;;6.70;4.30;;;;;;;;;;5043709;28;20056;-59
2021/08/11 02:02:14;;;;;;;5.40;4.15;;;;;;;;;;5039697;28;20064;-59
2021/08/11 02:04:40;;;;;;;;;;;;;;;;;;5041661;28;20028;-59
2021/08/11 02:07:05;;;;;;;5.68;4.13;;;;;;;;;;5043547;28;19963;-59
2021/08/11 02:09:31;;;;;;;7.63;4.63;;;;;;;;;;5041764;28;20032;-59
2021/08/11 02:11:58;;;;;;;8.30;4.40;;;;;;;;;;5046532;28;20048;-59
2021/08/11 02:14:23;;;;;;;9.70;4.50;;;;;;;;;;5045415;28;20095;-59
2021/08/11 02:16:50;;;;;;;8.18;4.32;;;;;;;;;;5039942;28;20025;-59
2021/08/11 02:19:15;;;;;;;6.30;4.28;;;;;;;;;;5041849;28;20032;-59
2021/08/11 02:21:41;;;;;;;7.68;4.97;;;;;;;;;;5041795;28;20044;-59
2021/08/11 02:24:08;;;;;;;7.90;4.88;;;;;;;;;;5042682;28;20033;-59
2021/08/11 02:26:42;;;;;;;9.20;4.70;;;;;;;;;;5045020;28;20061;-59
2021/08/11 02:29:15;;;;;;;10.48;5.03;;;;;;;;;;5043308;28;20122;-59
2021/08/11 02:32:02;;;;;;;7.28;4.90;;;;;;;;;;5041265;28;20060;-59
2021/08/11 02:34:46;;;;;;;7.63;4.95;;;;;;;;;;5047581;28;20483;-59
2021/08/11 02:37:18;;;;;;;6.43;4.40;;;;;;;;;;5063209;28;20445;-59
2021/08/11 02:40:07;;;;;;;9.02;4.40;;;;;;;;;;5040300;28;20507;-59
2021/08/11 02:42:41;;;;;;;7.18;4.72;;;;;;;;;;5044815;28;20107;-59
2021/08/11 02:45:11;;;;;;;6.28;4.47;;;;;;;;;;5040980;28;20139;-59
2021/08/11 02:47:38;;;;;;;11.80;5.15;;;;;;;;;;5042798;28;20511;-59
2021/08/11 02:50:06;;;;;;;7.07;4.28;;;;;;;;;;5043326;28;20044;-59
2021/08/11 02:52:32;;;;;;;8.15;4.82;;;;;;;;;;5041675;28;20021;-59
2021/08/11 02:54:58;;;;;;;8.13;5.05;;;;;;;;;;5044047;28;20509;-60
2021/08/11 02:57:24;;;;;;;6.97;4.95;;;;;;;;;;5040232;28;20394;-58
2021/08/11 02:59:51;;;;;;;7.35;4.60;;;;;;;;;;5041078;28;20027;-59
2021/08/11 03:02:16;;;;;;;9.57;4.82;;;;;;;;;;5036235;28;20029;-59
2021/08/11 03:04:42;;;;;;;7.45;4.75;;;;;;;;;;5041191;28;20040;-58
2021/08/11 03:07:08;;;;;;;7.95;4.60;;;;;;;;;;5044347;28;20036;-58
2021/08/11 03:09:35;;;;;;;8.38;4.95;;;;;;;;;;5037756;28;21111;-58
2021/08/11 03:12:01;;;;;;;8.35;4.32;;;;;;;;;;5036560;28;20459;-58
2021/08/11 03:14:27;;;;;;;7.90;4.57;;;;;;;;;;5042115;28;20108;-58
2021/08/11 03:16:52;;;;;;;7.43;4.68;;;;;;;;;;5039777;28;20116;-58
2021/08/11 03:19:18;;;;;;;7.28;4.70;;;;;;;;;;5046282;28;20017;-58
2021/08/11 03:21:43;;;;;;;5.90;4.82;;;;;;;;;;5046536;28;20033;-58
2021/08/11 03:24:09;;;;;;;6.18;4.68;;;;;;;;;;5045903;28;20257;-59
2021/08/11 03:26:34;;;;;;;8.35;4.38;;;;;;;;;;5042809;28;20029;-58
2021/08/11 03:29:01;;;;;;;6.75;4.75;;;;;;;;;;5042492;28;20171;-58
2021/08/11 03:31:28;;;;;;;5.63;4.43;;;;;;;;;;5042578;28;20411;-58
2021/08/11 03:33:54;;;;;;;6.03;4.35;;;;;;;;;;5041211;28;20496;-58
2021/08/11 03:36:19;;;;;;;6.85;4.50;;;;;;;;;;5038583;28;20028;-59
2021/08/11 03:38:45;;;;;;;9.07;5.03;;;;;;;;;;5040984;28;20160;-58
2021/08/11 03:41:10;;;;;;;7.40;5.03;;;;;;;;;;5048009;28;20090;-58
2021/08/11 03:43:36;;;;;;;8.13;4.90;;;;;;;;;;5042330;28;20025;-58
2021/08/11 03:46:01;;;;;;;9.88;5.15;;;;;;;;;;5039804;28;20037;-58
2021/08/11 03:48:26;;;;;;;8.55;5.03;;;;;;;;;;5045111;28;20022;-58
2021/08/11 03:50:52;;;;;;;8.90;5.15;;;;;;;;;;5041342;28;20032;-58
2021/08/11 03:53:17;;;;;;;7.43;4.72;;;;;;;;;;5043567;28;20065;-58
2021/08/11 03:55:43;;;;;;;7.82;4.80;;;;;;;;;;5041387;28;20033;-58
2021/08/11 03:58:08;;;;;;;7.32;5.00;;;;;;;;;;5047508;28;20044;-59
2021/08/11 04:00:34;;;;;;;8.02;4.60;;;;;;;;;;5044691;28;20114;-59
2021/08/11 04:02:59;;;;;;;7.38;4.60;;;;;;;;;;5040246;28;20025;-58
2021/08/11 04:05:25;;;;;;;8.77;5.00;;;;;;;;;;5040626;28;20468;-59
2021/08/11 04:07:50;;;;;;;7.25;5.15;;;;;;;;;;5040719;28;20559;-59
2021/08/11 04:10:16;;;;;;;7.53;4.38;;;;;;;;;;5037449;28;20021;-59
2021/08/11 04:12:41;;;;;;;7.40;4.93;;;;;;;;;;5038893;28;20029;-59
2021/08/11 04:15:07;;;;;;;7.55;4.75;;;;;;;;;;5041315;28;20025;-59
2021/08/11 04:17:33;;;;;;;7.28;4.78;;;;;;;;;;5040201;28;20052;-59
2021/08/11 04:19:58;;;;;;;6.85;4.43;;;;;;;;;;5042287;28;20391;-59
2021/08/11 04:22:24;;;;;;;9.38;4.43;;;;;;;;;;5043659;28;20582;-59
2021/08/11 04:24:49;;;;;;;11.07;6.28;;;;;;;;;;5040369;28;20079;-59
2021/08/11 04:27:15;;;;;;;10.73;6.32;;;;;;;;;;5040877;28;20055;-59
2021/08/11 04:29:40;;;;;;;10.05;5.57;;;;;;;;;;5042369;28;20514;-59
2021/08/11 04:32:06;;;;;;;8.23;5.22;;;;;;;;;;5039177;28;20446;-59
2021/08/11 04:34:31;;;;;;;8.25;5.13;;;;;;;;;;5043381;28;20380;-59
2021/08/11 04:36:58;;;;;;;9.27;5.47;;;;;;;;;;5044341;28;20095;-58
2021/08/11 04:39:23;;;;;;;10.77;5.25;;;;;;;;;;5041226;28;20029;-59
2021/08/11 04:41:49;;;;;;;8.68;5.10;;;;;;;;;;5040315;28;20074;-59
2021/08/11 04:44:14;;;;;;;9.85;5.78;;;;;;;;;;5048745;28;20191;-59
2021/08/11 04:46:41;;;;;;;9.77;5.50;;;;;;;;;;5040339;28;20029;-59
2021/08/11 04:49:07;;;;;;;10.48;5.55;;;;;;;;;;5038541;28;20565;-58
2021/08/11 04:51:33;;;;;;;9.52;5.50;;;;;;;;;;5040353;28;20033;-59
2021/08/11 04:53:58;;;;;;;10.73;6.60;;;;;;;;;;5040988;28;20073;-58
2021/08/11 04:56:24;;;;;;;23.48;11.65;;;;;;;;;;5041215;28;20028;-58
2021/08/11 04:58:49;;;;;;;11.98;6.57;;;;;;;;;;5040267;28;20052;-58
2021/08/11 05:01:15;;;;;;;9.10;5.25;;;;;;;;;;5041492;28;20033;-58
2021/08/11 05:03:40;;;;;;;11.25;6.03;;;;;;;;;;5045190;28;20028;-57
2021/08/11 05:06:09;;;;;;;9.95;6.03;;;;;;;;;;5039843;28;20127;-57
2021/08/11 05:08:36;;;;;;;10.45;6.07;;;;;;;;;;5042687;28;20040;-57
2021/08/11 05:11:02;;;;;;;9.85;5.22;;;;;;;;;;5039119;28;20045;-57
2021/08/11 05:13:27;;;;;;;9.18;5.72;;;;;;;;;;5042363;28;20048;-57
2021/08/11 05:15:53;;;;;;;9.60;5.80;;;;;;;;;;5047551;28;20043;-58
2021/08/11 05:18:18;;;;;;;9.93;5.68;;;;;;;;;;5041062;28;20029;-57
2021/08/11 05:20:44;;;;;;;9.82;5.18;;;;;;;;;;5036849;28;20037;-58
2021/08/11 05:23:09;;;;;;;8.85;5.18;;;;;;;;;;5037880;28;20032;-57
2021/08/11 05:25:35;;;;;;;9.18;5.85;;;;;;;;;;5044313;28;20040;-58
2021/08/11 05:28:00;;;;;;;9.45;6.32;;;;;;;;;;5037387;28;20844;-59
2021/08/11 05:30:25;;;;;;;8.93;5.97;;;;;;;;;;5039845;28;20498;-58
2021/08/11 05:32:51;;;;;;;9.85;5.50;;;;;;;;;;5041136;28;20033;-58
2021/08/11 05:35:16;;;;;;;13.38;6.20;;;;;;;;;;5038452;28;20034;-58
2021/08/11 05:37:42;;;;;;;10.85;6.18;;;;;;;;;;5042671;28;20444;-58
2021/08/11 05:40:08;;;;;;;12.00;6.00;;;;;;;;;;5046546;28;20035;-58
2021/08/11 05:42:34;;;;;;;9.75;5.78;;;;;;;;;;5039875;28;20411;-58
2021/08/11 05:44:59;;;;;;;8.65;5.63;;;;;;;;;;5043411;28;20025;-58
2021/08/11 05:47:24;;;;;;;16.25;6.43;;;;;;;;;;5041156;28;20106;-58
2021/08/11 05:49:50;;;;;;;10.68;6.30;;;;;;;;;;5039535;28;20029;-60
2021/08/11 05:52:16;;;;;;;8.45;5.80;;;;;;;;;;5034792;28;20087;-58
2021/08/11 05:54:41;;;;;;;9.68;6.18;;;;;;;;;;5045365;28;20026;-58
2021/08/11 05:57:08;;;;;;;8.23;5.90;;;;;;;;;;5040243;28;20472;-58
2021/08/11 05:59:35;;;;;;;9.57;6.15;;;;;;;;;;5039156;28;20029;-58
2021/08/11 06:02:00;;;;;;;11.95;6.85;;;;;;;;;;5042091;28;20102;-58
2021/08/11 06:04:28;;;;;;;11.57;5.75;;;;;;;;;;5039888;28;20498;-58
2021/08/11 06:06:53;;;;;;;9.88;6.63;;;;;;;;;;5042486;28;20049;-58
2021/08/11 06:09:18;;;;;;;12.60;6.65;;;;;;;;;;5040435;28;20372;-58
2021/08/11 06:11:44;;;;;;;9.45;5.72;;;;;;;;;;5047318;28;20040;-58
2021/08/11 06:14:10;;;;;;;7.57;6.05;;;;;;;;;;5045125;28;20107;-58
2021/08/11 06:16:36;;;;;;;8.32;5.47;;;;;;;;;;5045606;28;20028;-58
2021/08/11 06:19:02;;;;;;;8.98;5.78;;;;;;;;;;5041978;28;20124;-58
2021/08/11 06:21:28;;;;;;;8.52;5.47;;;;;;;;;;5044778;28;20107;-58
2021/08/11 06:23:54;;;;;;;8.90;5.53;;;;;;;;;;5040445;28;20502;-58
2021/08/11 06:26:21;;;;;;;9.30;5.65;;;;;;;;;;5044646;28;20111;-58
2021/08/11 06:28:46;;;;;;;9.18;5.13;;;;;;;;;;5042241;28;20035;-58
2021/08/11 06:31:17;;;;;;;8.77;5.45;;;;;;;;;;5039659;28;20407;-58
2021/08/11 06:33:45;;;;;;;7.88;5.53;;;;;;;;;;5045395;28;20349;-58
2021/08/11 06:36:11;;;;;;;10.07;5.45;;;;;;;;;;5044643;28;20090;-58
2021/08/11 06:38:37;;;;;;;8.80;5.32;;;;;;;;;;5039962;28;20036;-58
2021/08/11 06:41:02;;;;;;;10.23;6.03;;;;;;;;;;5037872;28;20036;-58
2021/08/11 06:43:28;;;;;;;8.57;5.72;;;;;;;;;;5041279;28;20102;-58
2021/08/11 06:45:53;;;;;;;16.17;6.05;;;;;;;;;;5045034;28;20038;-58
2021/08/11 06:48:18;;;;;;;11.40;6.97;;;;;;;;;;5037827;28;20115;-58
2021/08/11 06:50:44;;;;;;;7.43;5.55;;;;;;;;;;5033475;28;20514;-58
2021/08/11 06:53:09;;;;;;;9.07;5.03;;;;;;;;;;5034902;28;20025;-58
2021/08/11 06:55:35;;;;;;;8.93;5.25;;;;;;;;;;5036871;28;20100;-58
2021/08/11 06:58:00;;;;;;;10.23;5.75;;;;;;;;;;5038388;28;20029;-58
2021/08/11 07:00:25;;;;;;;9.27;5.72;;;;;;;;;;5038733;28;20029;-59
2021/08/11 07:02:51;;;;;;;10.25;6.22;;;;;;;;;;5039682;28;20028;-58
2021/08/11 07:05:17;;;;;;;11.63;5.88;;;;;;;;;;5041481;28;20522;-59
2021/08/11 07:07:42;;;;;;;9.48;5.93;;;;;;;;;;5046286;28;20104;-58
2021/08/11 07:10:17;;;;;;;10.10;5.70;;;;;;;;;;5046783;28;20032;-58
2021/08/11 07:12:43;;;;;;;13.23;6.38;;;;;;;;;;5038780;28;20078;-58
2021/08/11 07:15:10;;;;;;;10.70;5.72;;;;;;;;;;5037369;28;20033;-56
2021/08/11 07:17:35;;;;;;;11.43;5.40;;;;;;;;;;5035782;28;20032;-57
2021/08/11 07:20:07;;;;;;;9.52;6.13;;;;;;;;;;5035747;28;20028;-58
2021/08/11 07:22:33;;;;;;;9.48;6.05;;;;;;;;;;5046802;28;20032;-58
2021/08/11 07:24:58;;;;;;;8.18;5.55;;;;;;;;;;5045274;28;20033;-58
2021/08/11 07:27:24;;;;;;;7.80;5.75;;;;;;;;;;5042371;28;20035;-58
2021/08/11 07:29:49;;;;;;;7.10;5.45;;;;;;;;;;5039121;28;20029;-57
2021/08/11 07:32:14;;;;;;;10.18;5.65;;;;;;;;;;5037791;28;20128;-58
2021/08/11 07:34:40;;;;;;;13.95;5.93;;;;;;;;;;5037787;28;20018;-57
2021/08/11 07:37:05;;;;;;;7.13;5.68;;;;;;;;;;5042535;28;20075;-58
2021/08/11 07:39:31;;;;;;;11.73;6.35;;;;;;;;;;5034238;28;20582;-58
2021/08/11 07:41:56;;;;;;;8.07;5.95;;;;;;;;;;5036934;28;20060;-58
2021/08/11 07:44:21;;;;;;;8.73;5.97;;;;;;;;;;5045114;28;20548;-58
2021/08/11 07:46:47;;;;;;;9.55;5.57;;;;;;;;;;5038173;28;20024;-58
2021/08/11 07:49:13;;;;;;;10.02;5.57;;;;;;;;;;5037799;28;20036;-58
2021/08/11 07:51:38;;;;;;;9.40;5.80;;;;;;;;;;5043525;28;20039;-58
2021/08/11 07:54:04;;;;;;;11.52;5.70;;;;;;;;;;5039095;28;20036;-58
2021/08/11 07:56:29;;;;;;;7.97;5.40;;;;;;;;;;5041243;28;20033;-59
2021/08/11 07:58:54;;;;;;;9.38;5.93;;;;;;;;;;5041423;28;20025;-57
2021/08/11 08:01:20;;;;;;;8.55;5.57;;;;;;;;;;5036025;28;20057;-58
2021/08/11 08:03:45;;;;;;;7.95;5.95;;;;;;;;;;5035021;28;20041;-58
2021/08/11 08:06:11;;;;;;;9.70;5.72;;;;;;;;;;5034979;28;20037;-58
2021/08/11 08:08:37;;;;;;;7.25;5.45;;;;;;;;;;5040908;28;20068;-58
2021/08/11 08:11:03;;;;;;;9.32;6.00;;;;;;;;;;5039570;28;20411;-59
2021/08/11 08:13:28;;;;;;;6.82;5.45;;;;;;;;;;5043256;28;20032;-59
2021/08/11 08:15:54;;;;;;;11.48;5.82;;;;;;;;;;5043785;28;20037;-59
2021/08/11 08:18:22;;;;;;;10.10;5.40;;;;;;;;;;5043275;28;20103;-58
2021/08/11 08:20:52;;;;;;;8.00;5.65;;;;;;;;;;5044087;28;20032;-59
2021/08/11 08:23:18;;;;;;;9.07;5.90;;;;;;;;;;5035414;28;20029;-59
2021/08/11 08:25:44;;;;;;;8.20;5.50;;;;;;;;;;5043232;28;20390;-58
2021/08/11 08:28:10;;;;;;;8.52;6.03;;;;;;;;;;5035680;28;20108;-58
2021/08/11 08:30:36;;;;;;;8.95;5.60;;;;;;;;;;5047844;28;20036;-59
2021/08/11 08:33:01;;;;;;;6.72;5.50;;;;;;;;;;5039943;28;20450;-59
2021/08/11 08:35:26;;;;;;;8.02;5.57;;;;;;;;;;5040062;28;20209;-59
2021/08/11 08:37:52;;;;;;;8.55;5.50;;;;;;;;;;5042994;28;20390;-59
2021/08/11 08:40:18;;;;;;;12.35;6.65;;;;;;;;;;5045305;28;20089;-60
2021/08/11 08:42:43;;;;;;;12.50;6.20;;;;;;;;;;5046236;28;20040;-59
2021/08/11 08:45:10;;;;;;;15.13;6.03;;;;;;;;;;5036303;28;20035;-59
2021/08/11 08:47:37;;;;;;;8.90;5.93;;;;;;;;;;5033557;28;20111;-59
2021/08/11 08:50:09;;;;;;;10.05;5.97;;;;;;;;;;5041579;28;20054;-59
2021/08/11 08:52:37;;;;;;;7.63;5.30;;;;;;;;;;5037617;28;20029;-59
2021/08/11 08:55:04;;;;;;;10.98;5.70;;;;;;;;;;5041535;28;20510;-60
2021/08/11 08:57:30;;;;;;;10.98;5.90;;;;;;;;;;5033342;28;20447;-59
2021/08/11 08:59:56;;;;;;;10.02;5.85;;;;;;;;;;5040369;28;20025;-59
2021/08/11 09:02:22;;;;;;;11.75;6.03;;;;;;;;;;5038411;28;20078;-60
2021/08/11 09:04:49;;;;;;;6.82;5.28;;;;;;;;;;5050292;28;20029;-58
2021/08/11 09:07:19;;;;;;;11.93;6.28;;;;;;;;;;5041966;28;20411;-59
2021/08/11 09:09:45;;;;;;;8.15;5.82;;;;;;;;;;5039933;28;20032;-58
2021/08/11 09:12:16;;;;;;;9.50;5.72;;;;;;;;;;5037755;28;20072;-58
2021/08/11 09:14:47;;;;;;;13.00;6.03;;;;;;;;;;5043134;28;20431;-60
2021/08/11 09:17:37;;;;;;;11.70;6.65;;;;;;;;;;5035212;28;20098;-60
2021/08/11 09:20:05;;;;;;;7.28;5.40;;;;;;;;;;5041060;28;20029;-60
2021/08/11 09:22:48;;;;;;;8.67;5.87;;;;;;;;;;5039724;28;20047;-59
2021/08/11 09:25:14;;;;;;;9.55;5.60;;;;;;;;;;5046918;28;20287;-62
2021/08/11 09:27:41;;;;;;;8.30;5.65;;;;;;;;;;5045505;28;20036;-63
2021/08/11 09:30:14;;;;;;;8.98;5.93;;;;;;;;;;5038126;28;20035;-62
2021/08/11 09:32:48;;;;;;;10.15;5.63;;;;;;;;;;5039372;28;20025;-63
2021/08/11 09:35:15;;;;;;;8.23;5.72;;;;;;;;;;5037263;28;20072;-63
2021/08/11 09:37:42;;;;;;;8.77;5.50;;;;;;;;;;5035499;28;20036;-63
2021/08/11 09:40:10;;;;;;;8.32;5.35;;;;;;;;;;5036738;28;20480;-63
2021/08/11 09:42:37;;;;;;;7.93;5.78;;;;;;;;;;5036653;28;20037;-63
2021/08/11 09:45:03;;;;;;;9.02;5.80;;;;;;;;;;5042576;28;20406;-63
2021/08/11 09:47:29;;;;;;;7.97;5.07;;;;;;;;;;5047395;28;20024;-64
2021/08/11 09:50:08;;;;;;;8.10;5.70;;;;;;;;;;5038038;28;20032;-64
2021/08/11 09:52:47;;;;;;;7.43;5.50;;;;;;;;;;5041084;28;20030;-65
2021/08/11 09:55:12;;;;;;;8.63;5.80;;;;;;;;;;5040130;28;20013;-63
2021/08/11 09:57:38;;;;;;;7.60;5.78;;;;;;;;;;5038763;28;20391;-63
2021/08/11 10:00:04;;;;;;;10.38;6.07;;;;;;;;;;5038153;28;20037;-64
2021/08/11 10:02:29;;;;;;;12.30;5.93;;;;;;;;;;5045455;28;20025;-63
2021/08/11 10:04:55;;;;;;;7.70;5.40;;;;;;;;;;5046281;28;20035;-63
2021/08/11 10:07:20;;;;;;;8.75;5.28;;;;;;;;;;5046749;28;20033;-63
2021/08/11 10:10:01;;;;;;;9.77;5.35;;;;;;;;;;5045808;28;20515;-63
2021/08/11 10:12:28;;;;;;;8.02;5.30;;;;;;;;;;5038516;28;20033;-63
2021/08/11 10:14:59;;;;;;;12.20;5.78;;;;;;;;;;5036325;28;20071;-63
2021/08/11 10:17:34;;;;;;;10.32;5.57;;;;;;;;;;5043146;28;20021;-63
2021/08/11 10:20:03;;;;;;;7.80;5.72;;;;;;;;;;5045902;28;20049;-62
2021/08/11 10:22:30;;;;;;;8.38;5.35;;;;;;;;;;5037797;28;20479;-63
2021/08/11 10:24:56;;;;;;;6.63;5.65;;;;;;;;;;5044416;28;20037;-63
2021/08/11 10:27:23;;;;;;;7.38;5.40;;;;;;;;;;5039329;28;20034;-62
2021/08/11 10:29:51;;;;;;;7.78;5.47;;;;;;;;;;5043689;28;20048;-63
2021/08/11 10:32:16;;;;;;;8.05;5.90;;;;;;;;;;5040893;28;20029;-63
2021/08/11 10:34:43;;;;;;;9.40;5.78;;;;;;;;;;5042094;28;20452;-63
2021/08/11 10:37:11;;;;;;;10.35;5.82;;;;;;;;;;5044382;28;20033;-63
2021/08/11 10:39:39;;;;;;;9.10;5.63;;;;;;;;;;5045546;28;20032;-63
2021/08/11 10:42:14;;;;;;;11.33;6.00;;;;;;;;;;5049224;28;20052;-65
2021/08/11 10:44:40;;;;;;;10.70;6.32;;;;;;;;;;5041085;28;20061;-64
2021/08/11 10:47:08;;;;;;;10.85;6.22;;;;;;;;;;5039641;28;20458;-64
2021/08/11 10:49:51;;;;;;;8.65;6.10;;;;;;;;;;5038107;28;20155;-61
2021/08/11 10:52:17;;;;;;;12.05;6.97;;;;;;;;;;5037981;28;20029;-61
2021/08/11 10:54:53;;;;;;;13.65;8.15;;;;;;;;;;5035590;28;20083;-59
2021/08/11 10:57:34;;;;;;;8.85;6.75;;;;;;;;;;5039800;28;20120;-58
2021/08/11 11:00:10;;;;;;;13.40;7.38;;;;;;;;;;5039314;28;20028;-60
2021/08/11 11:02:41;;;;;;;10.27;7.03;;;;;;;;;;5043528;28;20063;-60
2021/08/11 11:05:27;;;;;;;11.63;6.90;;;;;;;;;;5042976;28;20079;-59
2021/08/11 11:08:14;;;;;;;13.10;7.15;;;;;;;;;;5033268;28;20028;-59
2021/08/11 11:10:44;;;;;;;11.98;7.50;;;;;;;;;;5044775;28;20075;-59
2021/08/11 11:13:34;;;;;;;10.63;7.05;;;;;;;;;;5042405;28;20137;-61
2021/08/11 11:16:01;;;;;;;12.18;7.55;;;;;;;;;;5042800;28;20411;-59
2021/08/11 11:18:27;;;;;;;10.60;7.13;;;;;;;;;;5043188;28;20079;-60
2021/08/11 11:20:56;;;;;;;10.82;7.53;;;;;;;;;;5040209;28;20032;-58
2021/08/11 11:23:38;;;;;;;11.70;7.40;;;;;;;;;;5042939;28;20532;-58
2021/08/11 11:26:14;;;;;;;11.88;7.35;;;;;;;;;;5042313;28;20041;-60
2021/08/11 11:29:02;;;;;;;18.30;8.25;;;;;;;;;;5039807;28;20022;-59
2021/08/11 11:31:29;;;;;;;12.32;7.40;;;;;;;;;;5036338;28;20055;-61
2021/08/11 11:34:14;;;;;;;10.68;7.88;;;;;;;;;;5039933;28;20037;-61
2021/08/11 11:36:40;;;;;;;9.48;7.22;;;;;;;;;;5040544;28;20036;-61
2021/08/11 11:39:11;;;;;;;9.50;7.45;;;;;;;;;;5040788;28;20025;-61
2021/08/11 11:41:37;;;;;;;12.32;7.72;;;;;;;;;;5040114;28;20021;-61
2021/08/11 11:44:41;;;;;;;12.68;8.20;;;;;;;;;;5034746;28;20402;-61
2021/08/11 11:47:07;;;;;;;12.13;8.15;;;;;;;;;;4986330;28;20034;-61
2021/08/11 11:49:33;;;;;;;12.60;8.38;;;;;;;;;;5033834;28;20403;-61
2021/08/11 11:51:59;;;;;;;11.55;7.50;;;;;;;;;;5040688;28;20387;-60
2021/08/11 11:54:25;;;;;;;11.48;8.07;;;;;;;;;;5037115;28;20029;-64
2021/08/11 11:56:50;;;;;;;13.40;8.60;;;;;;;;;;5038969;28;20107;-64
2021/08/11 11:59:16;;;;;;;16.27;8.38;;;;;;;;;;5039180;28;20471;-64
2021/08/11 12:01:41;;;;;;;12.35;8.07;;;;;;;;;;5038903;28;20431;-64
2021/08/11 12:04:09;;;;;;;11.98;8.30;;;;;;;;;;5042255;28;20118;-64
2021/08/11 12:06:40;;;;;;;12.88;8.07;;;;;;;;;;5038744;28;20512;-64
2021/08/11 12:09:06;;;;;;;12.50;8.82;;;;;;;;;;5040347;28;20040;-65
2021/08/11 12:11:34;;;;;;;11.40;8.52;;;;;;;;;;5040109;28;20021;-64
2021/08/11 12:14:01;;;;;;;11.23;8.60;;;;;;;;;;5044455;28;20033;-67
2021/08/11 12:16:41;;;;;;;12.57;8.65;;;;;;;;;;5043360;28;20026;-67
2021/08/11 12:19:15;;;;;;;11.45;8.45;;;;;;;;;;5037046;28;20025;-66
2021/08/11 12:21:41;;;;;;;16.88;8.50;;;;;;;;;;5037764;28;20040;-64
2021/08/11 12:24:06;;;;;;;15.98;9.15;;;;;;;;;;5038096;28;20099;-65
2021/08/11 12:26:33;;;;;;;14.05;8.98;;;;;;;;;;5035484;28;20026;-64
2021/08/11 12:28:59;;;;;;;14.57;8.77;;;;;;;;;;5040733;28;20029;-65
2021/08/11 12:31:32;;;;;;;15.70;9.32;;;;;;;;;;5035796;28;20029;-66
2021/08/11 12:34:00;;;;;;;17.38;8.85;;;;;;;;;;5042643;28;20487;-65
2021/08/11 12:36:31;;;;;;;13.27;9.40;;;;;;;;;;5036471;28;20024;-64
2021/08/11 12:39:15;;;;;;;11.43;8.45;;;;;;;;;;5041743;28;20077;-65
2021/08/11 12:41:43;;;;;;;13.85;7.80;;;;;;;;;;5037576;28;20088;-65
2021/08/11 12:44:21;;;;;;;12.68;7.78;;;;;;;;;;5046258;28;20067;-65
2021/08/11 12:46:48;;;;;;;;;;;;;;;;;;5040634;28;20404;-65
2021/08/11 12:49:25;;;;;;;11.02;7.40;;;;;;;;;;5040743;28;20056;-65
2021/08/11 12:52:06;;;;;;;11.02;8.10;;;;;;;;;;5048279;28;20053;-65
2021/08/11 12:54:50;;;;;;;12.68;7.57;;;;;;;;;;5043801;28;20033;-65
2021/08/11 12:57:17;;;;;;;13.60;7.85;;;;;;;;;;5036961;28;20022;-65
2021/08/11 12:59:55;;;;;;;14.45;8.15;;;;;;;;;;5041461;28;20510;-65
2021/08/11 13:02:29;;;;;;;10.02;7.40;;;;;;;;;;5036003;28;20051;-65
2021/08/11 13:05:24;;;;;;;11.95;7.80;;;;;;;;;;5035572;28;20074;-66
2021/08/11 13:07:54;;;;;;;15.82;7.25;;;;;;;;;;5028458;28;20094;-66
2021/08/11 13:10:21;;;;;;;12.32;8.18;;;;;;;;;;5032467;28;20419;-66
2021/08/11 13:12:46;;;;;;;15.25;7.65;;;;;;;;;;5040158;28;20100;-65
2021/08/11 13:15:28;;;;;;;11.20;8.05;;;;;;;;;;5040736;28;20535;-66
2021/08/11 13:17:56;;;;;;;12.57;8.00;;;;;;;;;;5037336;28;20105;-66
2021/08/11 13:20:38;;;;;;;12.93;7.07;;;;;;;;;;5039695;28;20033;-66
2021/08/11 13:23:06;;;;;;;14.07;8.52;;;;;;;;;;5040680;28;20447;-66
2021/08/11 13:25:32;;;;;;;12.20;7.60;;;;;;;;;;5040117;28;20029;-65
2021/08/11 13:28:02;;;;;;;11.93;8.60;;;;;;;;;;5039470;28;20076;-67
2021/08/11 13:30:27;;;;;;;11.93;8.35;;;;;;;;;;5039694;28;20454;-66
2021/08/11 13:32:53;;;;;;;13.27;8.45;;;;;;;;;;5046106;28;20037;-66
2021/08/11 13:35:20;;;;;;;17.85;8.40;;;;;;;;;;5046698;28;20057;-64
2021/08/11 13:37:46;;;;;;;14.43;7.95;;;;;;;;;;5032984;28;20543;-66
2021/08/11 13:40:13;;;;;;;12.95;8.38;;;;;;;;;;5044430;28;20490;-65
2021/08/11 13:42:39;;;;;;;16.70;8.83;;;;;;;;;;5040950;28;20033;-64
2021/08/11 13:45:05;;;;;;;17.35;9.13;;;;;;;;;;5047935;28;20124;-68
2021/08/11 13:47:31;;;;;;;13.77;8.43;;;;;;;;;;5041120;28;20619;-64
2021/08/11 13:49:56;;;;;;;15.18;9.20;;;;;;;;;;5044731;28;20021;-66
2021/08/11 13:52:22;;;;;;;15.00;8.43;;;;;;;;;;5039216;28;20634;-67
2021/08/11 13:54:48;;;;;;;18.13;8.57;;;;;;;;;;5043426;28;20033;-66
2021/08/11 13:57:14;;;;;;;12.80;8.20;;;;;;;;;;5038096;28;20017;-65
2021/08/11 13:59:40;;;;;;;18.98;8.80;;;;;;;;;;5036145;28;20084;-66
2021/08/11 14:02:05;;;;;;;12.90;8.32;;;;;;;;;;5042851;28;20032;-67
2021/08/11 14:04:32;;;;;;;13.77;8.27;;;;;;;;;;5043223;28;20625;-66
2021/08/11 14:07:00;;;;;;;17.42;8.25;;;;;;;;;;5041684;28;20053;-65
2021/08/11 14:09:26;;;;;;;12.48;7.85;;;;;;;;;;5041169;28;20033;-66
2021/08/11 14:11:51;;;;;;;13.73;8.38;;;;;;;;;;5050020;28;20431;-65
2021/08/11 14:14:17;;;;;;;13.85;8.48;;;;;;;;;;5045295;28;20484;-66
2021/08/11 14:16:42;;;;;;;12.50;8.38;;;;;;;;;;5045269;28;20037;-66
2021/08/11 14:19:07;;;;;;;13.85;8.23;;;;;;;;;;5047591;28;20122;-67
2021/08/11 14:21:33;;;;;;;12.40;8.30;;;;;;;;;;5043043;28;20467;-65
2021/08/11 14:23:59;;;;;;;15.07;8.75;;;;;;;;;;5043836;28;20583;-60
2021/08/11 14:26:25;;;;;;;13.05;8.40;;;;;;;;;;5046503;28;20033;-62
2021/08/11 14:28:50;;;;;;;12.63;8.50;;;;;;;;;;5044546;28;20072;-62
2021/08/11 14:31:16;;;;;;;14.32;8.45;;;;;;;;;;5040696;28;20127;-62
2021/08/11 14:33:41;;;;;;;18.45;9.05;;;;;;;;;;5045749;28;20503;-60
2021/08/11 14:36:07;;;;;;;13.98;8.55;;;;;;;;;;5044282;28;20028;-62
2021/08/11 14:38:34;;;;;;;18.02;8.73;;;;;;;;;;5043979;28;20025;-64
2021/08/11 14:41:00;;;;;;;16.23;8.85;;;;;;;;;;5045836;28;20119;-64
2021/08/11 14:43:26;;;;;;;16.13;8.68;;;;;;;;;;5048500;28;20335;-62